createdAt,value
2018-03-07T00:01:29.533Z,93293.30
2018-03-07T00:03:57.829Z,93286.77
2018-03-07T00:06:26.159Z,93294.78
2018-03-07T00:08:54.438Z,93298.25
2018-03-07T00:11:22.703Z,93295.42
2018-03-07T00:13:51.006Z,93310.28
2018-03-07T00:16:19.302Z,93312.41
2018-03-07T00:18:47.594Z,93318.16
2018-03-07T00:21:15.885Z,93303.20
2018-03-07T00:23:44.165Z,93299.03
2018-03-07T00:26:12.464Z,93283.78
2018-03-07T00:28:40.767Z,93279.52
2018-03-07T00:31:09.055Z,93286.45
2018-03-07T00:33:37.344Z,93277.09
2018-03-07T00:36:05.688Z,93295.81
2018-03-07T00:38:33.975Z,93300.61
2018-03-07T00:41:02.258Z,93305.96
2018-03-07T00:43:30.537Z,93297.55
2018-03-07T00:45:58.872Z,93287.63
2018-03-07T00:48:27.294Z,93306.91
2018-03-07T00:50:55.587Z,93300.61
2018-03-07T00:53:23.869Z,93292.98
2018-03-07T00:55:52.190Z,93288.03
2018-03-07T00:58:20.470Z,93291.64
2018-03-07T01:00:48.762Z,93304.08
2018-03-07T01:03:17.060Z,93296.45
2018-03-07T01:05:45.342Z,93307.93
2018-03-07T01:08:13.645Z,93300.45
2018-03-07T01:10:41.944Z,93316.35
2018-03-07T01:13:10.265Z,93316.51
2018-03-07T01:15:38.578Z,93291.09
2018-03-07T01:18:06.885Z,93294.16
2018-03-07T01:20:35.173Z,93297.39
2018-03-07T01:23:03.449Z,93311.00
2018-03-07T01:25:31.731Z,93290.39
2018-03-07T01:28:00.060Z,93301.09
2018-03-07T01:30:28.345Z,93299.20
2018-03-07T01:32:56.631Z,93298.02
2018-03-07T01:35:24.931Z,93308.17
2018-03-07T01:37:53.237Z,93297.47
2018-03-07T01:40:21.515Z,93296.53
2018-03-07T01:42:49.799Z,93293.85
2018-03-07T01:45:18.120Z,93296.53
2018-03-07T01:47:46.417Z,93299.99
2018-03-07T01:50:14.734Z,93302.12
2018-03-07T01:52:43.023Z,93271.91
2018-03-07T01:55:11.319Z,93296.38
2018-03-07T01:57:39.597Z,93290.08
2018-03-07T02:00:07.896Z,93296.61
2018-03-07T02:02:36.200Z,93290.72
2018-03-07T02:05:04.483Z,93294.73
2018-03-07T02:07:32.779Z,93299.89
2018-03-07T02:10:01.060Z,93282.11
2018-03-07T02:12:29.373Z,93300.08
2018-03-07T02:14:57.654Z,93311.72
2018-03-07T02:17:25.964Z,93302.75
2018-03-07T02:19:54.251Z,93297.41
2018-03-07T02:22:22.541Z,93314.94
2018-03-07T02:24:50.820Z,93301.17
2018-03-07T02:27:19.117Z,93306.37
2018-03-07T02:29:47.394Z,93293.39
2018-03-07T02:32:15.679Z,93302.17
2018-03-07T02:34:43.976Z,93290.14
2018-03-07T02:37:12.270Z,93295.88
2018-03-07T02:39:40.546Z,93302.56
2018-03-07T02:42:08.887Z,93299.34
2018-03-07T02:44:37.153Z,93299.19
2018-03-07T02:47:05.445Z,93304.14
2018-03-07T02:49:33.729Z,93320.59
2018-03-07T02:52:02.025Z,93315.39
2018-03-07T02:54:30.310Z,93321.92
2018-03-07T02:56:58.781Z,93313.35
2018-03-07T02:59:27.073Z,93315.23
2018-03-07T03:01:55.358Z,93308.16
2018-03-07T03:04:23.641Z,93324.59
2018-03-07T03:06:51.956Z,93321.92
2018-03-07T03:09:20.263Z,93321.53
2018-03-07T03:11:48.597Z,93315.39
2018-03-07T03:14:16.883Z,93312.88
2018-03-07T03:16:45.181Z,93317.28
2018-03-07T03:19:13.493Z,93334.27
2018-03-07T03:21:41.776Z,93330.84
2018-03-07T03:24:10.053Z,93339.80
2018-03-07T03:26:38.338Z,93323.56
2018-03-07T03:29:06.625Z,93319.17
2018-03-07T03:31:34.900Z,93319.17
2018-03-07T03:34:03.196Z,93321.53
2018-03-07T03:36:31.504Z,93316.09
2018-03-07T03:38:59.771Z,93312.02
2018-03-07T03:41:28.080Z,93326.02
2018-03-07T03:43:56.428Z,93321.70
2018-03-07T03:46:24.711Z,93310.30
2018-03-07T03:48:52.995Z,93316.80
2018-03-07T03:51:21.278Z,93307.67
2018-03-07T03:53:49.549Z,93309.41
2018-03-07T03:56:17.859Z,93329.47
2018-03-07T03:58:46.150Z,93337.18
2018-03-07T04:01:14.463Z,93336.23
2018-03-07T04:03:42.756Z,93342.22
2018-03-07T04:06:11.082Z,93344.11
2018-03-07T04:08:39.379Z,93338.21
2018-03-07T04:11:07.685Z,93339.72
2018-03-07T04:13:36.015Z,93354.17
2018-03-07T04:16:04.301Z,93337.19
2018-03-07T04:18:32.650Z,93356.70
2018-03-07T04:21:01.224Z,93344.04
2018-03-07T04:23:29.514Z,93342.88
2018-03-07T04:25:57.825Z,93331.52
2018-03-07T04:28:26.122Z,93338.30
2018-03-07T04:30:54.412Z,93335.55
2018-03-07T04:33:22.689Z,93342.88
2018-03-07T04:35:50.981Z,93352.69
2018-03-07T04:38:19.337Z,93352.14
2018-03-07T04:40:47.621Z,93351.04
2018-03-07T04:43:15.898Z,93345.80
2018-03-07T04:45:44.197Z,93338.96
2018-03-07T04:48:12.510Z,93340.69
2018-03-07T04:50:40.794Z,93336.83
2018-03-07T04:53:09.093Z,93338.30
2018-03-07T04:55:37.381Z,93341.91
2018-03-07T04:58:05.741Z,93343.41
2018-03-07T05:00:34.145Z,93335.93
2018-03-07T05:03:02.555Z,93339.00
2018-03-07T05:05:30.845Z,93355.20
2018-03-07T05:07:59.145Z,93358.28
2018-03-07T05:10:27.450Z,93349.46
2018-03-07T05:12:55.746Z,93355.36
2018-03-07T19:55:25.136Z,93869.75
2018-03-07T19:57:53.426Z,93865.19
2018-03-07T20:00:21.897Z,93861.03
2018-03-07T20:02:50.268Z,93858.45
2018-03-07T20:05:18.894Z,93867.13
2018-03-07T20:07:47.188Z,93868.86
2018-03-07T20:10:15.493Z,93869.23
2018-03-07T20:12:44.898Z,93868.86
2018-03-07T20:15:13.270Z,93870.56
2018-03-07T20:17:41.473Z,93869.80
2018-03-07T20:20:09.915Z,93878.38
2018-03-07T20:22:38.212Z,93874.52
2018-03-07T20:25:06.728Z,93874.81
2018-03-07T20:27:35.437Z,93880.70
2018-03-07T20:30:03.751Z,93885.66
2018-03-07T20:32:32.396Z,93881.00
2018-03-07T20:35:01.158Z,93880.21
2018-03-07T20:37:42.156Z,93876.89
2018-03-07T20:40:10.442Z,93883.33
2018-03-07T20:42:38.816Z,93881.20
2018-03-07T20:45:07.255Z,93885.22
2018-03-07T20:47:35.533Z,93876.80
2018-03-07T20:50:03.837Z,93879.47
2018-03-07T20:52:32.174Z,93878.31
2018-03-07T20:55:00.467Z,93881.53
2018-03-07T20:57:28.943Z,93879.16
2018-03-07T20:59:57.251Z,93879.95
2018-03-07T21:02:25.565Z,93872.06
2018-03-07T21:04:53.868Z,93874.34
2018-03-07T21:07:22.156Z,93873.95
2018-03-07T21:09:50.446Z,93879.59
2018-03-07T21:12:18.767Z,93876.92
2018-03-07T21:14:47.077Z,93878.27
2018-03-07T21:17:15.357Z,93874.25
2018-03-07T21:19:43.706Z,93866.73
2018-03-07T21:22:12.025Z,93852.95
2018-03-07T21:24:40.516Z,93853.90
2018-03-07T21:27:08.813Z,93853.90
2018-03-07T21:29:37.093Z,93855.38
2018-03-07T21:32:05.372Z,93852.31
2018-03-07T21:34:33.676Z,93848.30
2018-03-07T21:37:02.023Z,93843.34
2018-03-07T21:39:30.396Z,93845.77
2018-03-07T21:41:58.682Z,93841.36
2018-03-07T21:44:26.986Z,93834.28
2018-03-07T21:46:55.286Z,93830.81
2018-03-07T21:49:23.592Z,93826.64
2018-03-07T21:51:51.873Z,93821.05
2018-03-07T21:54:19.924Z,93815.70
2018-03-07T21:56:48.232Z,93822.39
2018-03-07T21:59:16.526Z,93823.91
2018-03-07T22:01:44.809Z,93837.65
2018-03-07T22:04:13.091Z,93840.72
2018-03-07T22:06:41.449Z,93840.32
2018-03-07T22:09:09.733Z,93836.31
2018-03-07T22:11:38.030Z,93834.61
2018-03-07T22:14:06.315Z,93836.31
2018-03-07T22:16:34.658Z,93833.81
2018-03-07T22:19:02.946Z,93832.88
2018-03-07T22:21:31.233Z,93838.62
2018-03-07T22:23:59.520Z,93834.75
2018-03-07T22:26:27.817Z,93843.17
2018-03-07T22:28:56.104Z,93845.85
2018-03-07T22:31:24.445Z,93845.85
2018-03-07T22:33:52.748Z,93847.98
2018-03-07T22:36:21.050Z,93843.17
2018-03-07T22:38:49.361Z,93846.65
2018-03-07T22:41:17.668Z,93849.47
2018-03-07T22:43:45.969Z,93854.42
2018-03-07T22:46:14.274Z,93857.50
2018-03-07T22:48:42.578Z,93852.55
2018-03-07T22:51:10.877Z,93851.20
2018-03-07T22:53:39.190Z,93847.59
2018-03-07T22:56:07.544Z,93843.72
2018-03-07T22:58:35.820Z,93843.58
2018-03-07T23:01:04.116Z,93847.02
2018-03-07T23:03:32.419Z,93839.56
2018-03-07T23:06:01.677Z,93834.61
2018-03-07T23:08:29.971Z,93844.73
2018-03-07T23:10:58.288Z,93835.94
2018-03-07T23:13:26.768Z,93834.61
2018-03-07T23:15:55.057Z,93834.21
2018-03-07T23:18:23.330Z,93827.52
2018-03-07T23:20:51.614Z,93823.91
2018-03-07T23:23:19.902Z,93820.25
2018-03-07T23:25:48.194Z,93825.24
2018-03-07T23:28:16.475Z,93827.91
2018-03-07T23:30:44.752Z,93824.27
2018-03-07T23:33:13.046Z,93822.56
2018-03-07T23:35:41.353Z,93818.92
2018-03-07T23:38:09.710Z,93823.51
2018-03-07T23:40:38.002Z,93813.34
2018-03-07T23:43:06.292Z,93815.48
2018-03-07T23:45:34.763Z,93816.42
2018-03-07T23:48:03.054Z,93811.61
2018-03-07T23:50:31.365Z,93809.73
2018-03-07T23:52:59.855Z,93809.73
2018-03-07T23:55:28.182Z,93806.66
2018-03-07T23:57:56.483Z,93813.34
